Pagina principale
METAR-TAF:

METAR-TAF

Aeroporti :

Mar del Plata, Argentina

latitudine: 37-56S, longitudine: 057-35W, altezza: 18 m

Osservazione

Il bollettino è stato emesso 57 minuti fa, alle 22:00 UTC
Vento 4 kt da nord/nord-ovest, variando fra nord-ovest e nord/nord-est
Temperature 11°C
Umidità 66%
Pressione 1025 hPa
Visibilità 10 km o più
nessuna nube inferiore a 1500 m e nessun cumulonembo

METAR: SAZM 152200Z 34004KT 310V020 CAVOK 11/05 Q1025

Ora: 19:57 (22:57 UTC)

Previsione

Il bollettino è stato emesso 5 ore e 57 minuti fa, alle 17:00 UTC
Previsione valida dal 15 alle 18 UTC al 16 alle 18 UTC
Vento 10 kt da nord/nord-est
Visibilità 10 km o più
nessuna nube inferiore a 1500 m e nessun cumulonembo
Evoluzione graduale
dal 16 alle 10 UTC al 16 alle 13 UTC
Vento 15 kt da nord/nord-ovest con raffiche fino a 25 kt

TAF: SAZM 151700Z 1518/1618 02010KT CAVOK TX16/1618Z TN02/1610Z BECMG 1610/1613 34015G25KT

Osservazioni e previsioni meteorologiche di più di 4000 aeroporti (messaggi METAR e TAF).

Le stazioni disponibili sono rappresentate dai dischi gialli e rossi sulla carta.

Puntare il mouse per vedere il nome della stazione.

Clicca sopra per visualizzare le osservazioni e previsioni meteorologiche.

Per cambiare la mappa : fare clic sui pulsanti verdi con una croce nera per ingrandire, il pulsante verde con un trattino per diminuire, o sulla freccia verde per le mappe adiacenti.


METAR-TAF: